Time;durP1;ratioP1;P1;durP2;ratioP2;P2;SDS_P1;SDS_P2;PMS_P1;PMS_P2;Temp;Humidity;BMP_temperature;BMP_pressure;BME280_temperature;BME280_humidity;BME280_pressure;Samples;Min_cycle;Max_cycle;Signal;HPM_P1;HPM_P2
2022/07/12 00:02:05;;;;;;;5.43;1.83;;;;;;;17.34;59.06;93364.44;2071598;69;20210;-74
2022/07/12 00:04:30;;;;;;;2.70;1.35;;;;;;;17.37;58.87;93355.34;2071098;69;20155;-74
2022/07/12 00:06:56;;;;;;;5.35;1.73;;;;;;;17.15;59.83;93368.53;2071580;69;20147;-74
2022/07/12 00:09:22;;;;;;;5.38;1.90;;;;;;;17.22;59.68;93362.47;2071439;69;20507;-75
2022/07/12 00:11:47;;;;;;;5.28;1.73;;;;;;;17.24;58.71;93353.31;2067948;69;20151;-75
2022/07/12 00:14:14;;;;;;;6.07;1.88;;;;;;;17.30;59.19;93361.41;2067925;69;20144;-75
2022/07/12 00:16:40;;;;;;;3.33;1.65;;;;;;;17.20;59.21;93361.66;2064703;69;20152;-75
2022/07/12 00:19:06;;;;;;;4.43;1.65;;;;;;;17.16;59.43;93364.31;2068245;69;20155;-74
2022/07/12 00:21:32;;;;;;;4.80;1.80;;;;;;;17.05;60.07;93365.22;2067938;69;20210;-76
2022/07/12 00:23:57;;;;;;;7.03;2.00;;;;;;;16.97;60.27;93365.56;2067514;69;20203;-75
2022/07/12 00:26:23;;;;;;;7.00;1.65;;;;;;;17.03;60.00;93375.09;2069777;69;20156;-75
2022/07/12 00:28:50;;;;;;;5.63;1.80;;;;;;;16.93;60.04;93368.22;2071709;69;20257;-75
2022/07/12 00:31:16;;;;;;;3.47;1.60;;;;;;;16.89;60.36;93368.75;2071692;69;20176;-75
2022/07/12 00:33:41;;;;;;;3.78;1.70;;;;;;;16.97;60.22;93365.56;2068371;69;20568;-75
2022/07/12 00:36:08;;;;;;;6.20;1.73;;;;;;;17.02;59.74;93367.94;2071804;69;20606;-76
2022/07/12 00:38:33;;;;;;;2.42;1.45;;;;;;;16.95;59.94;93379.66;2071752;69;20286;-76
2022/07/12 00:40:59;;;;;;;3.95;1.55;;;;;;;16.93;60.03;93368.94;2070252;69;20239;-76
2022/07/12 00:43:25;;;;;;;4.00;1.63;;;;;;;16.74;61.12;93367.31;2071498;69;20148;-75
2022/07/12 00:45:51;;;;;;;3.97;1.70;;;;;;;16.70;61.08;93369.22;2071654;69;20140;-75
2022/07/12 00:48:17;;;;;;;6.38;1.52;;;;;;;16.92;59.78;93367.47;2067612;69;20149;-76
2022/07/12 00:50:46;;;;;;;3.05;1.63;;;;;;;16.93;60.02;93371.78;2071867;69;20174;-75
2022/07/12 00:53:13;;;;;;;6.22;1.95;;;;;;;16.94;59.96;93367.56;2071052;69;20175;-76
2022/07/12 00:55:38;;;;;;;3.28;1.60;;;;;;;16.90;60.30;93366.63;2071404;69;20172;-75
2022/07/12 00:58:04;;;;;;;5.03;1.83;;;;;;;17.00;58.47;93359.34;2071768;69;20488;-76
2022/07/12 01:00:30;;;;;;;4.55;1.73;;;;;;;16.67;60.75;93364.78;2071659;69;20238;-75
2022/07/12 01:02:58;;;;;;;11.00;2.40;;;;;;;16.87;59.78;93362.97;2071555;69;20148;-75
2022/07/12 01:05:25;;;;;;;3.88;1.58;;;;;;;16.76;60.53;93363.84;2071749;69;20243;-76
2022/07/12 01:07:51;;;;;;;7.15;2.13;;;;;;;16.75;60.07;93365.22;2070536;69;20183;-75
2022/07/12 01:10:17;;;;;;;5.97;2.25;;;;;;;16.82;59.54;93371.94;2071073;69;20176;-75
2022/07/12 01:12:42;;;;;;;5.95;2.03;;;;;;;16.79;59.26;93376.78;2070944;69;20171;-75
2022/07/12 01:15:09;;;;;;;4.82;2.05;;;;;;;16.92;58.98;93369.59;2071568;69;20195;-75
2022/07/12 01:17:35;;;;;;;4.68;1.60;;;;;;;16.91;59.01;93371.69;2071541;69;20148;-75
2022/07/12 01:20:05;;;;;;;8.93;2.45;;;;;;;16.55;60.86;93375.59;2071190;69;20152;-74
2022/07/12 01:22:33;;;;;;;5.78;1.90;;;;;;;16.63;61.12;93373.88;2071210;69;20159;-75
2022/07/12 01:25:01;;;;;;;12.13;2.63;;;;;;;16.71;60.82;93379.22;2070924;69;20578;-75
2022/07/12 01:27:27;;;;;;;8.57;2.45;;;;;;;16.94;58.87;93384.63;2068235;69;20180;-75
2022/07/12 01:29:53;;;;;;;6.75;2.15;;;;;;;16.80;60.20;93383.22;2071624;69;20179;-75
2022/07/12 01:32:26;;;;;;;4.70;1.63;;;;;;;16.79;60.23;93384.59;2071910;69;20547;-76
2022/07/12 01:34:55;;;;;;;7.80;2.22;;;;;;;16.62;60.15;93378.06;2065882;69;20137;-75
2022/07/12 01:37:23;;;;;;;6.78;2.28;;;;;;;16.75;59.97;93380.16;2072016;69;20144;-76
2022/07/12 01:39:54;;;;;;;6.63;2.45;;;;;;;16.88;58.31;93384.34;2071389;69;20172;-76
2022/07/12 01:42:22;;;;;;;4.35;2.25;;;;;;;16.80;58.26;93378.25;2072024;69;20201;-75
2022/07/12 01:44:49;;;;;;;7.60;2.38;;;;;;;16.55;60.10;93375.59;2072032;69;20239;-75
2022/07/12 01:47:17;;;;;;;10.18;2.20;;;;;;;16.66;59.71;93375.44;2072009;69;20144;-75
2022/07/12 01:49:43;;;;;;;8.10;2.30;;;;;;;16.32;61.28;93374.47;2071196;69;20148;-75
2022/07/12 01:52:09;;;;;;;14.63;3.17;;;;;;;16.38;60.77;93377.59;2068252;69;20179;-75
2022/07/12 01:54:35;;;;;;;8.70;2.60;;;;;;;16.40;60.70;93366.34;2071736;69;20502;-76
2022/07/12 01:57:02;;;;;;;7.30;2.80;;;;;;;16.45;60.41;93364.44;2071975;69;20235;-76
2022/07/12 01:59:29;;;;;;;7.20;2.30;;;;;;;16.41;60.75;93369.94;2072025;69;20647;-75
2022/07/12 02:01:55;;;;;;;6.22;2.17;;;;;;;16.39;60.81;93366.97;2068300;69;20140;-75
2022/07/12 02:04:21;;;;;;;3.42;1.85;;;;;;;16.36;61.06;93369.00;2071759;69;20231;-76
2022/07/12 02:06:48;;;;;;;7.38;2.00;;;;;;;16.18;61.71;93370.91;2071890;69;20217;-75
2022/07/12 02:09:15;;;;;;;8.80;2.42;;;;;;;16.24;61.60;93363.41;2071573;69;20164;-76
2022/07/12 02:11:43;;;;;;;5.90;1.85;;;;;;;16.12;62.22;93370.59;2071870;69;20148;-75
2022/07/12 02:14:12;;;;;;;17.13;3.10;;;;;;;16.13;61.72;93380.59;2071618;69;20217;-75
2022/07/12 02:16:38;;;;;;;10.18;2.60;;;;;;;16.08;61.71;93382.50;2066438;69;20144;-75
2022/07/12 02:19:05;;;;;;;6.97;2.40;;;;;;;16.21;61.40;93378.88;2068407;69;20140;-76
2022/07/12 02:21:33;;;;;;;7.00;2.00;;;;;;;16.19;61.37;93375.22;2071549;69;20246;-75
2022/07/12 02:23:59;;;;;;;10.43;2.58;;;;;;;16.03;62.43;93380.78;2071425;69;20221;-75
2022/07/12 02:26:27;;;;;;;3.60;2.00;;;;;;;16.05;62.16;93372.38;2071482;69;20188;-75
2022/07/12 02:28:54;;;;;;;7.85;2.30;;;;;;;16.02;62.11;93371.53;2068395;69;20659;-75
2022/07/12 02:31:19;;;;;;;4.78;2.10;;;;;;;16.01;62.66;93364.41;2071998;69;20217;-75
2022/07/12 02:33:47;;;;;;;7.72;2.40;;;;;;;15.96;62.87;93364.81;2068210;69;20213;-75
2022/07/12 02:36:14;;;;;;;7.38;2.25;;;;;;;15.98;62.78;93368.50;2068514;69;20167;-75
2022/07/12 02:38:40;;;;;;;6.70;2.30;;;;;;;16.10;61.88;93371.22;2071864;69;20149;-75
2022/07/12 02:41:06;;;;;;;5.88;2.30;;;;;;;16.16;62.32;93373.63;2071325;69;20507;-75
2022/07/12 02:43:32;;;;;;;4.75;2.00;;;;;;;16.06;62.83;93367.44;2068412;69;20152;-75
2022/07/12 02:46:09;;;;;;;10.63;2.47;;;;;;;16.19;61.91;93375.94;2071966;69;20144;-75
2022/07/12 02:48:36;;;;;;;5.18;2.13;;;;;;;16.08;62.96;93376.06;2070977;69;20243;-75
2022/07/12 02:51:04;;;;;;;6.53;2.20;;;;;;;16.05;63.01;93377.34;2068659;69;20137;-75
2022/07/12 02:53:29;;;;;;;8.05;2.03;;;;;;;16.13;61.96;93369.97;2071790;69;20543;-75
2022/07/12 02:55:56;;;;;;;7.22;2.45;;;;;;;16.05;62.52;93363.13;2071425;69;20143;-75
2022/07/12 02:58:22;;;;;;;4.63;2.17;;;;;;;16.10;62.12;93367.66;2071648;69;20148;-75
2022/07/12 03:00:48;;;;;;;6.32;2.13;;;;;;;16.09;63.83;93366.91;2068590;69;20183;-76
2022/07/12 03:03:15;;;;;;;10.10;2.50;;;;;;;16.04;63.97;93367.34;2071394;69;20160;-76
2022/07/12 03:05:42;;;;;;;8.65;2.50;;;;;;;16.09;63.59;93369.75;2071634;69;20140;-76
2022/07/12 03:08:09;;;;;;;4.65;2.22;;;;;;;15.92;64.77;93367.44;2071108;69;20140;-76
2022/07/12 03:10:36;;;;;;;6.88;2.17;;;;;;;16.09;63.73;93381.13;2071844;69;20144;-75
2022/07/12 03:13:04;;;;;;;5.35;2.40;;;;;;;16.08;63.47;93379.66;2067552;69;20179;-75
2022/07/12 03:15:31;;;;;;;6.35;2.30;;;;;;;16.05;64.50;93378.06;2067898;69;20160;-76
2022/07/12 03:17:59;;;;;;;6.55;2.30;;;;;;;16.15;63.13;93386.38;2067956;69;20567;-76
2022/07/12 03:20:24;;;;;;;5.00;2.20;;;;;;;16.09;63.98;93383.22;2065188;69;20227;-75
2022/07/12 03:22:51;;;;;;;5.25;2.30;;;;;;;16.05;63.78;93371.66;2067473;69;20349;-75
2022/07/12 03:25:19;;;;;;;4.75;2.42;;;;;;;16.05;63.71;93375.22;2067446;69;20622;-75
2022/07/12 03:27:44;;;;;;;6.05;2.08;;;;;;;16.05;64.19;93369.56;2068180;69;20240;-75
2022/07/12 03:30:11;;;;;;;10.48;2.35;;;;;;;16.16;63.02;93374.38;2068404;69;20240;-76
2022/07/12 03:32:40;;;;;;;18.50;3.72;;;;;;;16.32;61.32;93382.25;2068088;69;20143;-75
2022/07/12 03:35:06;;;;;;;24.05;3.85;;;;;;;16.32;61.87;93377.31;2067911;69;20303;-76
2022/07/12 03:37:42;;;;;;;11.77;2.58;;;;;;;16.15;64.05;93377.84;2067364;69;20147;-75
2022/07/12 03:40:08;;;;;;;5.25;2.25;;;;;;;16.14;63.30;93384.91;2067596;69;20225;-76
2022/07/12 03:42:35;;;;;;;9.15;2.10;;;;;;;16.09;64.89;93381.13;2068031;69;20243;-74
2022/07/12 03:45:02;;;;;;;8.27;2.20;;;;;;;16.04;65.04;93376.59;2068426;69;20158;-76
2022/07/12 03:47:28;;;;;;;4.90;1.95;;;;;;;16.08;64.59;93379.66;2064268;69;20145;-75
2022/07/12 03:49:57;;;;;;;10.40;2.95;;;;;;;15.69;65.08;93389.00;2067351;69;20141;-75
2022/07/12 03:52:23;;;;;;;13.63;2.95;;;;;;;16.00;63.83;93382.06;2064647;69;20176;-75
2022/07/12 03:54:48;;;;;;;7.28;2.40;;;;;;;16.12;63.44;93385.53;2066521;69;20270;-76
2022/07/12 03:57:14;;;;;;;8.55;2.60;;;;;;;16.09;63.26;93381.13;2068471;69;20147;-75
2022/07/12 03:59:45;;;;;;;6.15;2.20;;;;;;;16.12;62.92;93382.69;2068342;69;20144;-75
2022/07/12 04:02:11;;;;;;;4.55;2.20;;;;;;;16.07;64.43;93383.84;2068220;69;20247;-75
2022/07/12 04:04:38;;;;;;;8.95;2.80;;;;;;;15.97;64.63;93378.38;2067910;69;20238;-76
2022/07/12 04:07:05;;;;;;;8.30;2.50;;;;;;;15.92;64.66;93373.84;2067995;69;20603;-75
2022/07/12 04:09:31;;;;;;;6.40;2.58;;;;;;;15.98;63.94;93376.28;2068160;69;20222;-76
2022/07/12 04:11:58;;;;;;;10.00;2.55;;;;;;;16.06;64.04;93388.06;2068823;69;20136;-75
2022/07/12 04:14:23;;;;;;;3.35;2.22;;;;;;;16.01;64.62;93384.28;2071812;69;20499;-75
2022/07/12 04:16:49;;;;;;;3.58;2.30;;;;;;;15.95;64.68;93381.13;2071692;69;20183;-74
2022/07/12 04:19:15;;;;;;;9.63;2.97;;;;;;;15.97;64.69;93374.81;2071664;69;20148;-75
2022/07/12 04:21:41;;;;;;;5.00;2.50;;;;;;;16.01;64.32;93387.13;2071158;69;20684;-75
2022/07/12 04:24:06;;;;;;;8.18;2.65;;;;;;;16.05;64.39;93386.59;2071216;69;20261;-75
2022/07/12 04:26:32;;;;;;;8.52;2.45;;;;;;;15.99;64.76;93386.28;2071788;69;20148;-75
2022/07/12 04:28:58;;;;;;;7.68;2.67;;;;;;;16.03;64.70;93392.16;2071855;69;20183;-75
2022/07/12 04:31:27;;;;;;;15.45;3.50;;;;;;;15.86;65.65;93396.28;2071302;69;20529;-75
2022/07/12 04:33:52;;;;;;;12.88;3.40;;;;;;;15.92;65.17;93388.06;2068201;69;20259;-75
2022/07/12 04:36:18;;;;;;;16.60;3.50;;;;;;;16.04;64.42;93395.75;2070847;69;20156;-75
2022/07/12 04:38:43;;;;;;;12.73;3.08;;;;;;;16.05;64.60;93395.13;2071357;69;20136;-75
2022/07/12 04:41:09;;;;;;;12.32;3.03;;;;;;;15.88;65.75;93402.03;2071199;69;20574;-75
2022/07/12 04:43:35;;;;;;;7.18;2.75;;;;;;;16.05;65.04;93400.06;2071403;69;20231;-76
2022/07/12 04:46:10;;;;;;;14.20;3.17;;;;;;;16.04;65.74;93398.59;2071676;69;20682;-76
2022/07/12 04:48:37;;;;;;;9.63;2.67;;;;;;;16.11;65.60;93403.19;2071312;69;20152;-75
2022/07/12 04:51:03;;;;;;;7.70;2.72;;;;;;;16.07;65.80;93409.41;2071564;69;20164;-75
2022/07/12 04:53:29;;;;;;;13.07;3.03;;;;;;;16.04;65.95;93404.28;2071430;69;20168;-75
2022/07/12 04:55:56;;;;;;;10.18;2.75;;;;;;;16.09;65.92;93403.84;2070952;69;20156;-74
2022/07/12 04:58:23;;;;;;;9.27;2.72;;;;;;;16.19;65.48;93406.47;2070854;69;20235;-75
2022/07/12 05:00:49;;;;;;;15.25;3.15;;;;;;;16.15;66.21;93409.09;2071442;69;20151;-76
2022/07/12 05:03:15;;;;;;;12.45;2.83;;;;;;;16.20;65.96;93411.50;2070897;69;20634;-76
2022/07/12 05:05:40;;;;;;;8.32;2.22;;;;;;;16.26;65.58;93414.69;2072100;69;20159;-76
2022/07/12 05:08:06;;;;;;;7.65;2.60;;;;;;;16.33;65.65;93417.81;2071571;69;20148;-76
2022/07/12 05:10:32;;;;;;;8.48;2.28;;;;;;;16.35;65.91;93418.63;2071932;69;20179;-75
2022/07/12 05:12:57;;;;;;;8.77;2.85;;;;;;;16.44;64.89;93411.25;2071916;69;20166;-75
2022/07/12 05:15:23;;;;;;;12.05;2.53;;;;;;;16.42;65.47;93411.91;2071640;69;20531;-75
2022/07/12 05:17:49;;;;;;;7.80;2.80;;;;;;;16.47;64.93;93416.44;2068616;69;20172;-75
2022/07/12 05:20:15;;;;;;;14.20;2.90;;;;;;;16.45;65.51;93416.34;2071986;69;20156;-76
2022/07/12 05:22:43;;;;;;;16.85;3.78;;;;;;;16.45;65.88;93424.13;2065210;69;20175;-75
2022/07/12 05:25:09;;;;;;;26.90;4.63;;;;;;;16.44;66.08;93423.38;2071685;69;20321;-75
2022/07/12 05:27:38;;;;;;;22.05;4.15;;;;;;;16.46;66.32;93417.81;2071715;69;20567;-75
2022/07/12 05:30:04;;;;;;;16.73;3.05;;;;;;;16.47;66.14;93418.53;2068552;69;20168;-75
2022/07/12 05:32:30;;;;;;;13.13;2.88;;;;;;;16.47;64.88;93421.38;2071571;69;20239;-74
2022/07/12 05:34:56;;;;;;;18.58;3.63;;;;;;;16.47;65.48;93421.38;2071645;69;20156;-75
2022/07/12 05:37:24;;;;;;;14.02;3.30;;;;;;;16.48;64.97;93428.53;2070846;69;20155;-75
2022/07/12 05:39:51;;;;;;;16.10;3.50;;;;;;;16.52;65.75;93426.63;2071922;69;20506;-75
2022/07/12 05:42:17;;;;;;;10.60;2.75;;;;;;;16.43;66.09;93424.75;2071923;69;20151;-76
2022/07/12 05:44:42;;;;;;;11.55;3.33;;;;;;;16.52;64.48;93431.56;2071537;69;20136;-76
2022/07/12 05:47:08;;;;;;;18.45;3.80;;;;;;;16.59;64.98;93433.38;2071292;69;20144;-76
2022/07/12 05:49:33;;;;;;;16.02;4.57;;;;;;;16.57;64.75;93432.50;2071600;69;20152;-74
2022/07/12 05:54:43;;;;;;;17.45;3.92;;;;;;;16.56;65.53;93436.72;2071803;69;20160;-74
2022/07/12 05:57:09;;;;;;;17.65;4.55;;;;;;;16.59;65.08;93429.78;2071904;69;20258;-74
2022/07/12 05:59:35;;;;;;;11.20;3.40;;;;;;;16.56;65.08;93443.16;2066559;69;20542;-74
2022/07/12 06:02:01;;;;;;;12.35;3.40;;;;;;;16.53;64.93;93436.63;2066526;69;20223;-75
2022/07/12 06:04:27;;;;;;;20.45;4.50;;;;;;;16.54;64.12;93437.38;2070605;69;20148;-75
2022/07/12 06:06:52;;;;;;;15.15;3.55;;;;;;;16.51;65.70;93438.63;2070184;69;20133;-75
2022/07/12 06:09:18;;;;;;;9.23;2.88;;;;;;;16.44;66.28;93437.56;2071663;69;20316;-74
2022/07/12 06:11:43;;;;;;;10.57;3.15;;;;;;;16.46;66.21;93440.53;2071062;69;20586;-74
2022/07/12 06:14:09;;;;;;;10.75;3.33;;;;;;;16.53;65.47;93435.88;2070599;69;20176;-74
2022/07/12 06:16:35;;;;;;;8.32;2.80;;;;;;;16.51;64.84;93436.53;2071729;69;20144;-74
2022/07/12 06:19:02;;;;;;;9.40;2.90;;;;;;;16.56;65.68;93433.91;2071471;69;20148;-75
2022/07/12 06:21:27;;;;;;;11.77;2.78;;;;;;;16.58;65.73;93428.28;2070081;69;20144;-75
2022/07/12 06:23:54;;;;;;;9.77;2.78;;;;;;;16.63;65.55;93429.97;2071228;69;20152;-76
2022/07/12 06:26:19;;;;;;;7.05;2.42;;;;;;;16.65;64.32;93435.78;2071457;69;20238;-76
2022/07/12 06:28:45;;;;;;;10.63;2.83;;;;;;;16.74;64.73;93429.16;2068190;69;20132;-73
2022/07/12 06:31:10;;;;;;;13.20;3.03;;;;;;;16.82;65.41;93423.13;2071111;69;20591;-76
2022/07/12 06:33:36;;;;;;;19.20;3.75;;;;;;;16.91;63.56;93422.16;2067825;69;20161;-74
2022/07/12 06:36:02;;;;;;;13.85;2.88;;;;;;;16.92;64.36;93420.78;2065076;69;20232;-73
2022/07/12 06:38:27;;;;;;;12.90;2.78;;;;;;;17.02;62.04;93416.31;2071226;69;20235;-74
2022/07/12 06:40:53;;;;;;;8.65;2.63;;;;;;;17.08;64.66;93415.13;2071357;69;20148;-75
2022/07/12 06:43:18;;;;;;;7.93;2.42;;;;;;;17.18;63.62;93415.59;2071413;69;20148;-75
2022/07/12 06:45:44;;;;;;;7.88;2.47;;;;;;;17.21;63.95;93405.81;2071171;69;20518;-74
2022/07/12 06:48:10;;;;;;;12.50;2.67;;;;;;;17.30;62.82;93404.81;2071450;69;20239;-75
2022/07/12 06:50:36;;;;;;;28.88;11.65;;;;;;;17.43;59.18;93404.00;2065296;69;20141;-75
2022/07/12 06:53:02;;;;;;;13.88;3.75;;;;;;;17.52;61.17;93399.44;2068008;69;20144;-75
2022/07/12 06:55:28;;;;;;;18.08;3.45;;;;;;;17.58;59.41;93398.97;2067402;69;20517;-75
2022/07/12 06:57:54;;;;;;;97.65;39.10;;;;;;;17.70;57.81;93397.41;2071382;69;20202;-76
2022/07/12 07:00:19;;;;;;;38.90;13.65;;;;;;;17.77;59.45;93398.44;2068081;69;20175;-74
2022/07/12 07:02:45;;;;;;;105.95;46.28;;;;;;;17.72;61.67;93399.63;2071088;69;20140;-74
2022/07/12 07:05:11;;;;;;;51.38;18.15;;;;;;;17.82;59.33;93402.22;2070963;69;20614;-76
2022/07/12 07:07:37;;;;;;;308.25;139.32;;;;;;;17.86;62.16;93394.59;2070683;69;20152;-76
2022/07/12 07:10:03;;;;;;;14.80;3.00;;;;;;;17.91;61.53;93393.38;2071042;69;20233;-75
2022/07/12 07:12:29;;;;;;;72.43;29.70;;;;;;;18.03;60.29;93396.06;2071390;69;20807;-74
2022/07/12 07:14:54;;;;;;;28.50;10.00;;;;;;;18.11;60.47;93395.69;2071153;69;20141;-76
2022/07/12 07:17:20;;;;;;;9.30;2.70;;;;;;;18.15;61.90;93401.56;2071502;69;20613;-75
2022/07/12 07:19:46;;;;;;;11.40;3.03;;;;;;;18.21;61.95;93398.97;2071562;69;20155;-75
2022/07/12 07:22:13;;;;;;;13.43;3.00;;;;;;;18.23;62.64;93393.34;2070022;69;20802;-76
2022/07/12 07:24:39;;;;;;;17.88;3.53;;;;;;;18.31;62.27;93390.84;2067981;69;20172;-75
2022/07/12 07:27:05;;;;;;;10.50;2.90;;;;;;;18.34;63.93;93389.56;2071333;69;20621;-75
2022/07/12 07:32:15;;;;;;;5.82;2.22;;;;;;;18.55;61.85;93382.59;2071818;69;20148;-75
2022/07/12 07:34:41;;;;;;;8.13;2.20;;;;;;;18.53;60.50;93388.97;2071384;69;20148;-75
2022/07/12 07:37:08;;;;;;;6.43;2.13;;;;;;;18.52;60.05;93384.63;2071779;69;20148;-76
2022/07/12 07:39:34;;;;;;;4.90;2.40;;;;;;;18.59;59.83;93393.44;2071699;69;20452;-75
2022/07/12 07:41:59;;;;;;;2.65;2.00;;;;;;;18.68;59.03;93387.44;2068362;69;20160;-75
2022/07/12 07:44:25;;;;;;;12.52;2.97;;;;;;;18.82;59.66;93378.75;2071979;69;20236;-74
2022/07/12 07:46:51;;;;;;;10.13;2.80;;;;;;;18.66;58.38;93375.94;2071626;69;20590;-74
2022/07/12 07:49:16;;;;;;;7.78;2.40;;;;;;;18.84;59.33;93381.69;2070915;69;20226;-73
2022/07/12 07:51:42;;;;;;;5.43;2.10;;;;;;;18.99;58.26;93372.31;2068232;69;20583;-74
2022/07/12 07:54:10;;;;;;;7.25;2.47;;;;;;;19.11;57.46;93374.94;2071116;69;20140;-76
2022/07/12 07:56:36;;;;;;;3.45;2.10;;;;;;;19.05;58.06;93369.69;2068197;69;20518;-75
2022/07/12 07:59:02;;;;;;;7.00;2.13;;;;;;;19.21;57.33;93369.63;2071416;69;20602;-76
2022/07/12 08:01:43;;;;;;;8.40;2.58;;;;;;;19.56;57.42;93373.81;2070746;69;20199;-73
2022/07/12 08:04:10;;;;;;;9.13;2.50;;;;;;;19.96;53.57;93371.03;2070385;69;20603;-73
2022/07/12 08:06:35;;;;;;;7.72;2.30;;;;;;;19.87;55.01;93357.84;2070609;69;20662;-74
2022/07/12 08:09:01;;;;;;;4.18;2.00;;;;;;;20.07;54.53;93367.16;2070896;69;20221;-72
2022/07/12 08:11:27;;;;;;;11.43;4.10;;;;;;;20.29;52.97;93367.22;2069848;69;20160;-74
2022/07/12 08:13:53;;;;;;;7.30;2.13;;;;;;;20.35;52.21;93361.72;2071251;69;20152;-75
2022/07/12 08:16:18;;;;;;;10.82;2.65;;;;;;;20.32;51.74;93360.19;2064098;69;20152;-75
2022/07/12 08:18:44;;;;;;;8.73;2.08;;;;;;;20.96;49.49;93352.34;2070419;69;20619;-77
2022/07/12 08:21:10;;;;;;;7.20;2.13;;;;;;;21.40;52.17;93354.47;2070934;69;20172;-78
2022/07/12 08:23:35;;;;;;;4.30;1.80;;;;;;;22.60;48.93;93360.78;2071593;69;20140;-74
2022/07/12 08:26:01;;;;;;;8.60;2.25;;;;;;;22.98;48.51;93358.22;2071210;69;20227;-76
2022/07/12 08:28:27;;;;;;;7.80;2.03;;;;;;;22.96;47.24;93349.56;2071422;69;20148;-74
2022/07/12 08:30:53;;;;;;;6.55;1.90;;;;;;;23.13;46.09;93347.06;2070195;69;20185;-74
2022/07/12 08:33:19;;;;;;;10.30;2.30;;;;;;;23.74;44.97;93354.25;2071409;69;20214;-77
2022/07/12 08:35:45;;;;;;;4.95;1.60;;;;;;;23.39;45.05;93350.56;2071904;69;20153;-74
2022/07/12 08:38:11;;;;;;;5.07;1.90;;;;;;;23.47;44.43;93352.91;2071766;69;20675;-75
2022/07/12 08:40:37;;;;;;;4.32;1.77;;;;;;;23.90;46.05;93343.09;2071749;69;20231;-74
2022/07/12 08:43:03;;;;;;;5.10;1.73;;;;;;;24.24;43.07;93348.13;2066197;69;20152;-74
2022/07/12 08:45:29;;;;;;;4.50;2.03;;;;;;;24.59;44.39;93341.63;2068707;69;20565;-75
2022/07/12 08:47:55;;;;;;;4.43;1.70;;;;;;;24.28;44.05;93343.19;2071540;69;20190;-74
2022/07/12 08:50:22;;;;;;;5.07;1.88;;;;;;;24.83;43.58;93347.13;2071248;69;20502;-74
2022/07/12 08:52:55;;;;;;;4.38;1.73;;;;;;;24.80;41.82;93336.97;2071765;69;20172;-73
2022/07/12 08:55:23;;;;;;;15.13;2.75;;;;;;;25.03;41.96;93346.00;2071127;69;20206;-77
2022/07/12 08:57:51;;;;;;;5.80;1.77;;;;;;;24.97;41.04;93343.75;2068332;69;20578;-75
2022/07/12 09:00:17;;;;;;;5.10;2.10;;;;;;;25.72;41.87;93352.16;2072084;69;20163;-76
2022/07/12 09:02:53;;;;;;;4.80;1.70;;;;;;;26.24;40.87;93345.66;2071373;69;20538;-75
2022/07/12 09:05:30;;;;;;;7.78;2.00;;;;;;;25.97;38.86;93345.31;2071688;69;20626;-74
2022/07/12 09:08:10;;;;;;;13.75;1.80;;;;;;;25.83;40.66;93345.84;2071132;69;20159;-77
2022/07/12 09:10:50;;;;;;;10.55;1.92;;;;;;;26.57;38.91;93341.00;2071658;69;20235;-75
2022/07/12 09:13:17;;;;;;;5.55;1.90;;;;;;;26.37;39.16;93338.59;2071581;69;20156;-75
2022/07/12 09:15:43;;;;;;;3.78;1.50;;;;;;;26.53;38.85;93338.81;2068229;69;20229;-76
2022/07/12 09:18:22;;;;;;;2.95;1.52;;;;;;;25.59;38.50;93346.19;2071573;69;20606;-76
2022/07/12 09:20:52;;;;;;;8.02;1.95;;;;;;;26.38;37.76;93337.16;2071308;69;20522;-75
2022/07/12 09:23:17;;;;;;;4.47;1.50;;;;;;;25.78;38.72;93338.56;2071403;69;20159;-79
2022/07/12 09:25:44;;;;;;;3.55;1.60;;;;;;;27.31;37.61;93333.81;2071803;69;20507;-77
2022/07/12 09:28:10;;;;;;;5.15;1.48;;;;;;;27.21;38.53;93334.44;2071251;69;20178;-78
2022/07/12 09:30:47;;;;;;;3.47;1.20;;;;;;;27.14;37.86;93324.28;2068205;69;20140;-77
2022/07/12 09:36:15;;;;;;;4.00;1.20;;;;;;;27.04;36.24;93321.28;2071194;69;20152;-76
2022/07/12 09:39:00;;;;;;;16.50;2.22;;;;;;;27.96;36.55;93313.28;2071533;69;20160;-78
2022/07/12 09:41:27;;;;;;;5.25;1.20;;;;;;;27.77;35.28;93321.16;2071718;69;20232;-79
2022/07/12 09:43:53;;;;;;;10.23;1.85;;;;;;;27.56;36.43;93311.56;2071092;69;20160;-78
2022/07/12 09:46:19;;;;;;;9.40;1.75;;;;;;;28.06;35.35;93316.22;2071529;69;20213;-81
2022/07/12 09:48:46;;;;;;;9.15;1.60;;;;;;;28.21;34.39;93309.06;2071614;69;20136;-76
2022/07/12 09:51:17;;;;;;;17.30;2.35;;;;;;;28.38;35.67;93312.78;2071825;69;20217;-78
2022/07/12 09:53:49;;;;;;;6.13;1.38;;;;;;;28.49;32.88;93316.44;2071636;69;20187;-77
2022/07/12 09:56:20;;;;;;;4.88;1.10;;;;;;;29.04;35.17;93302.81;2072142;69;20139;-79
2022/07/12 09:58:54;;;;;;;4.18;1.13;;;;;;;29.45;33.46;93310.78;2072373;69;20539;-76
2022/07/12 10:01:20;;;;;;;6.80;1.30;;;;;;;29.51;33.61;93307.91;2072300;69;20251;-76
2022/07/12 10:03:47;;;;;;;4.97;1.10;;;;;;;30.08;32.57;93302.00;2068753;69;20598;-80
2022/07/12 10:06:23;;;;;;;12.65;1.80;;;;;;;30.58;31.67;93315.63;2071995;69;20172;-79
2022/07/12 10:08:50;;;;;;;6.78;1.40;;;;;;;30.64;32.49;93309.06;2071845;69;20217;-78
2022/07/12 10:11:16;;;;;;;8.25;1.40;;;;;;;30.94;32.30;93319.81;2072087;69;20163;-79
2022/07/12 10:13:43;;;;;;;4.22;1.10;;;;;;;31.15;31.87;93308.75;2071712;69;20144;-78
2022/07/12 10:16:10;;;;;;;5.57;1.13;;;;;;;31.49;30.99;93307.81;2072144;69;20152;-81
2022/07/12 10:18:36;;;;;;;5.22;1.00;;;;;;;31.91;30.14;93308.91;2072005;69;20205;-78
2022/07/12 10:21:18;;;;;;;6.85;1.13;;;;;;;31.51;28.63;93296.13;2072021;69;20140;-81
2022/07/12 10:23:43;;;;;;;4.95;1.00;;;;;;;32.22;29.61;93308.56;2072068;69;20223;-82
2022/07/12 10:26:15;;;;;;;3.97;1.00;;;;;;;31.67;30.08;93303.28;2071993;69;20144;-80
2022/07/12 10:28:58;;;;;;;3.47;0.80;;;;;;;32.38;25.54;93303.28;2071751;69;20171;-82
2022/07/12 10:31:27;;;;;;;19.23;1.98;;;;;;;31.39;27.46;93305.00;2071915;69;20145;-80
2022/07/12 10:34:08;;;;;;;7.90;1.05;;;;;;;31.29;27.57;93302.84;2071891;69;20156;-79
2022/07/12 10:36:57;;;;;;;6.45;0.98;;;;;;;31.74;26.38;93293.03;2068190;69;20231;-79
2022/07/12 10:39:25;;;;;;;3.17;0.80;;;;;;;32.59;24.00;93294.31;2069110;69;20604;-77
2022/07/12 10:42:17;;;;;;;3.45;0.68;;;;;;;33.70;24.51;93296.34;2071772;69;20282;-76
2022/07/12 10:44:45;;;;;;;6.45;0.90;;;;;;;32.70;21.90;93294.88;2070909;69;20144;-75
2022/07/12 10:47:15;;;;;;;5.65;0.85;;;;;;;33.93;20.90;93306.16;2071934;69;20164;-74
2022/07/12 10:49:53;;;;;;;6.45;0.88;;;;;;;33.58;19.46;93297.25;2071180;69;20136;-76
2022/07/12 10:52:26;;;;;;;3.00;0.68;;;;;;;33.95;19.10;93300.31;2071758;69;20325;-76
2022/07/12 10:54:55;;;;;;;3.42;0.60;;;;;;;33.39;19.88;93303.38;2068590;69;20159;-77
2022/07/12 10:57:43;;;;;;;3.40;0.60;;;;;;;32.95;20.02;93296.03;2072073;69;20180;-76
2022/07/12 11:00:13;;;;;;;4.63;0.70;;;;;;;33.07;20.04;93300.94;2071304;69;20602;-75
2022/07/12 11:02:39;;;;;;;2.70;0.68;;;;;;;34.69;19.83;93301.81;2071726;69;20140;-77
2022/07/12 11:05:05;;;;;;;12.82;1.42;;;;;;;36.68;18.00;93304.28;2071768;69;20229;-77
2022/07/12 11:07:31;;;;;;;10.05;1.15;;;;;;;39.02;16.53;93314.22;2068053;69;20140;-76
2022/07/12 11:09:57;;;;;;;5.28;0.70;;;;;;;40.61;15.11;93310.03;2071905;69;20143;-76
2022/07/12 11:12:31;;;;;;;3.50;0.60;;;;;;;42.27;13.75;93314.81;2071871;69;20566;-76
2022/07/12 11:15:02;;;;;;;5.97;0.75;;;;;;;42.61;14.41;93316.00;2071165;69;20140;-76
2022/07/12 11:17:30;;;;;;;3.22;0.47;;;;;;;43.49;13.48;93322.50;2068596;69;20230;-77
2022/07/12 11:20:09;;;;;;;1.92;0.47;;;;;;;45.15;11.77;93323.19;2071732;69;20156;-77
2022/07/12 11:22:35;;;;;;;7.88;0.90;;;;;;;45.78;12.29;93324.47;2071650;69;20152;-77
2022/07/12 11:25:04;;;;;;;2.03;0.38;;;;;;;43.18;12.38;93309.34;2071875;69;20156;-78
2022/07/12 11:27:30;;;;;;;3.75;0.60;;;;;;;47.21;11.47;93317.84;2068393;69;20132;-78
2022/07/12 11:29:59;;;;;;;3.67;0.65;;;;;;;46.95;10.89;93302.53;2071496;69;20180;-77
2022/07/12 11:32:54;;;;;;;1.98;0.40;;;;;;;45.04;11.15;93299.34;2071868;69;20601;-76
2022/07/12 11:35:25;;;;;;;5.10;0.55;;;;;;;45.38;11.19;93299.44;2051450;70;20613;-77
2022/07/12 11:37:56;;;;;;;4.07;0.55;;;;;;;45.24;10.63;93303.31;2053921;70;20181;-74
2022/07/12 11:40:23;;;;;;;9.17;0.97;;;;;;;48.12;10.68;93304.59;2054402;70;20557;-77
2022/07/12 11:42:58;;;;;;;6.53;0.63;;;;;;;47.22;10.69;93304.38;2051241;70;20677;-76